Felix-Klein-Gymnasium, Gttingen, 150m NN
Wetterdaten: aktuell Donnerstag, 28.10.2021 17:00
Datum Zeit Temp. A. Feuchte A. Luftdruck Regen Wind Richtung Richtung Sonnenschein Taupunkt Windchill Windben
28.10.2021 17:00 15,7 C 61 % 1014,7 hPa 0,0 mm 1,2 km/h (1 Bft) NW 308 0 min 8,2 C 15,7 C 11,3 km/h (2 Bft)
28.10.2021 16:45 15,7 C 61 % 1014,9 hPa 0,0 mm 4,8 km/h (1 Bft) W-NW 285 0 min 8,2 C 15,7 C 16,1 km/h (3 Bft)
28.10.2021 16:30 15,8 C 60 % 1015,0 hPa 0,0 mm 6,0 km/h (2 Bft) W-NW 296 15 min 8,1 C 15,8 C 19,3 km/h (3 Bft)
28.10.2021 16:15 16,1 C 61 % 1015,3 hPa 0,0 mm 3,9 km/h (1 Bft) NW 306 15 min 8,6 C 16,1 C 19,3 km/h (3 Bft)
28.10.2021 16:00 16,1 C 60 % 1015,4 hPa 0,0 mm 5,1 km/h (1 Bft) NW 315 15 min 8,3 C 16,1 C 17,7 km/h (3 Bft)
28.10.2021 15:45 16,0 C 61 % 1015,4 hPa 0,0 mm 6,1 km/h (2 Bft) W 271 15 min 8,5 C 16,0 C 19,3 km/h (3 Bft)
28.10.2021 15:30 16,0 C 61 % 1015,4 hPa 0,0 mm 5,3 km/h (1 Bft) W 276 15 min 8,5 C 16,0 C 16,1 km/h (3 Bft)
28.10.2021 15:15 15,9 C 62 % 1015,7 hPa 0,0 mm 6,2 km/h (2 Bft) W-NW 294 15 min 8,6 C 15,9 C 17,7 km/h (3 Bft)
28.10.2021 15:00 15,8 C 62 % 1015,8 hPa 0,0 mm 6,0 km/h (2 Bft) W 273 15 min 8,5 C 15,8 C 17,7 km/h (3 Bft)
28.10.2021 14:45 15,7 C 62 % 1016,0 hPa 0,0 mm 7,7 km/h (2 Bft) W-NW 286 15 min 8,4 C 15,7 C 19,3 km/h (3 Bft)
28.10.2021 14:30 15,7 C 62 % 1016,4 hPa 0,0 mm 7,5 km/h (2 Bft) W-NW 296 15 min 8,4 C 15,7 C 20,9 km/h (4 Bft)
28.10.2021 14:15 15,6 C 62 % 1016,5 hPa 0,0 mm 8,0 km/h (2 Bft) W-NW 284 15 min 8,3 C 15,6 C 20,9 km/h (4 Bft)
28.10.2021 14:00 15,6 C 63 % 1016,7 hPa 0,0 mm 7,1 km/h (2 Bft) W 267 15 min 8,6 C 15,6 C 19,3 km/h (3 Bft)
28.10.2021 13:45 15,4 C 64 % 1016,9 hPa 0,0 mm 7,1 km/h (2 Bft) W-NW 288 15 min 8,6 C 15,4 C 22,5 km/h (4 Bft)
28.10.2021 13:30 15,5 C 65 % 1017,1 hPa 0,0 mm 6,0 km/h (2 Bft) W 267 15 min 8,9 C 15,5 C 17,7 km/h (3 Bft)
28.10.2021 13:15 15,2 C 67 % 1017,4 hPa 0,0 mm 5,4 km/h (1 Bft) W-NW 292 15 min 9,1 C 15,2 C 16,1 km/h (3 Bft)
28.10.2021 13:00 14,9 C 68 % 1017,5 hPa 0,0 mm 3,0 km/h (1 Bft) W-NW 291 15 min 9,0 C 14,9 C 12,9 km/h (3 Bft)
28.10.2021 12:45 14,3 C 70 % 1017,7 hPa 0,0 mm 5,3 km/h (1 Bft) N-NW 334 15 min 8,9 C 14,3 C 19,3 km/h (3 Bft)
28.10.2021 12:30 14,1 C 71 % 1017,8 hPa 0,0 mm 6,2 km/h (2 Bft) N-NW 331 15 min 8,9 C 14,1 C 20,9 km/h (4 Bft)
28.10.2021 12:15 14,1 C 72 % 1018,0 hPa 0,0 mm 4,0 km/h (1 Bft) NW 312 15 min 9,1 C 14,1 C 14,5 km/h (3 Bft)
28.10.2021 12:00 13,7 C 75 % 1018,2 hPa 0,0 mm 2,8 km/h (1 Bft) W-NW 298 15 min 9,3 C 13,7 C 16,1 km/h (3 Bft)
28.10.2021 11:45 13,2 C 80 % 1018,1 hPa 0,0 mm 0,4 km/h (0 Bft) NW 325 15 min 9,8 C 13,2 C 8,0 km/h (2 Bft)
28.10.2021 11:30 12,6 C 82 % 1018,3 hPa 0,0 mm 1,1 km/h (1 Bft) N-NW 331 15 min 9,6 C 12,6 C 8,0 km/h (2 Bft)
28.10.2021 11:15 11,9 C 85 % 1018,4 hPa 0,0 mm 3,0 km/h (1 Bft) W-NW 288 15 min 9,5 C 11,9 C 14,5 km/h (3 Bft)
28.10.2021 11:00 11,4 C 89 % 1018,6 hPa 0,0 mm 1,8 km/h (1 Bft) NW 318 15 min 9,7 C 11,4 C 12,9 km/h (3 Bft)
28.10.2021 10:45 10,6 C 93 % 1018,7 hPa 0,0 mm 1,0 km/h (0 Bft) W 267 15 min 9,5 C 10,6 C 9,7 km/h (2 Bft)
28.10.2021 10:30 9,8 C 95 % 1018,9 hPa 0,0 mm 0,2 km/h (0 Bft) N-NW 329 15 min 9,0 C 9,8 C 4,8 km/h (1 Bft)
28.10.2021 10:15 8,8 C 96 % 1019,0 hPa 0,0 mm 0,1 km/h (0 Bft) NW 324 15 min 8,2 C 8,8 C 6,4 km/h (2 Bft)
28.10.2021 10:00 7,8 C 96 % 1019,2 hPa 0,0 mm 0,2 km/h (0 Bft) N-NW 333 15 min 7,2 C 7,8 C 4,8 km/h (1 Bft)
28.10.2021 09:45 7,3 C 96 % 1019,3 hPa 0,0 mm 0,0 km/h (0 Bft) N-NW 333 15 min 6,7 C 7,3 C 0,0 km/h (0 Bft)
28.10.2021 09:30 6,4 C 96 % 1019,3 hPa 0,0 mm 0,0 km/h (0 Bft) N-NW 333 15 min 5,8 C 6,4 C 0,0 km/h (0 Bft)
28.10.2021 09:15 6,0 C 96 % 1019,2 hPa 0,0 mm 0,0 km/h (0 Bft) N-NW 333 0 min 5,4 C 6,0 C 0,0 km/h (0 Bft)
28.10.2021 09:00 5,7 C 96 % 1019,3 hPa 0,0 mm 0,0 km/h (0 Bft) N-NW 333 0 min 5,1 C 5,7 C 0,0 km/h (0 Bft)
28.10.2021 08:45 5,5 C 96 % 1019,3 hPa 0,0 mm 0,0 km/h (0 Bft) N-NW 333 0 min 4,9 C 5,5 C 0,0 km/h (0 Bft)
28.10.2021 08:30 5,4 C 95 % 1019,3 hPa 0,0 mm 0,0 km/h (0 Bft) N-NW 333 0 min 4,7 C 5,4 C 0,0 km/h (0 Bft)
28.10.2021 08:15 5,7 C 96 % 1019,5 hPa 0,0 mm 0,0 km/h (0 Bft) N-NW 333 0 min 5,1 C 5,7 C 0,0 km/h (0 Bft)
28.10.2021 08:00 5,8 C 96 % 1019,4 hPa 0,0 mm 0,0 km/h (0 Bft) N-NW 331 0 min 5,2 C 5,8 C 0,0 km/h (0 Bft)
28.10.2021 07:45 5,8 C 96 % 1019,5 hPa 0,0 mm 0,0 km/h (0 Bft) N-NW 331 0 min 5,2 C 5,8 C 0,0 km/h (0 Bft)
28.10.2021 07:30 5,7 C 96 % 1019,6 hPa 0,0 mm 0,0 km/h (0 Bft) N-NW 331 0 min 5,1 C 5,7 C 0,0 km/h (0 Bft)
28.10.2021 07:15 5,7 C 95 % 1019,6 hPa 0,0 mm 0,0 km/h (0 Bft) N-NW 331 0 min 5,0 C 5,7 C 0,0 km/h (0 Bft)
28.10.2021 07:00 5,8 C 95 % 1019,8 hPa 0,3 mm 0,0 km/h (0 Bft) N-NW 331 0 min 5,1 C 5,8 C 0,0 km/h (0 Bft)
28.10.2021 06:45 5,8 C 95 % 1019,8 hPa 0,0 mm 0,0 km/h (0 Bft) N-NW 331 0 min 5,1 C 5,8 C 0,0 km/h (0 Bft)
28.10.2021 06:30 5,9 C 95 % 1019,8 hPa 0,0 mm 0,0 km/h (0 Bft) N-NW 331 0 min 5,2 C 5,9 C 0,0 km/h (0 Bft)
28.10.2021 06:15 5,9 C 95 % 1019,8 hPa 0,0 mm 0,1 km/h (0 Bft) N-NW 331 0 min 5,2 C 5,9 C 4,8 km/h (1 Bft)
28.10.2021 06:00 6,1 C 95 % 1019,9 hPa 0,0 mm 0,0 km/h (0 Bft) N-NW 330 0 min 5,4 C 6,1 C 0,0 km/h (0 Bft)
28.10.2021 05:45 6,4 C 95 % 1019,9 hPa 0,0 mm 0,0 km/h (0 Bft) N-NW 330 0 min 5,7 C 6,4 C 0,0 km/h (0 Bft)
28.10.2021 05:30 6,7 C 95 % 1019,9 hPa 0,0 mm 0,0 km/h (0 Bft) N-NW 330 0 min 6,0 C 6,7 C 0,0 km/h (0 Bft)
28.10.2021 05:15 6,9 C 95 % 1020,0 hPa 0,0 mm 0,0 km/h (0 Bft) N-NW 330 0 min 6,2 C 6,9 C 0,0 km/h (0 Bft)
28.10.2021 05:00 6,8 C 95 % 1020,1 hPa 0,0 mm 0,0 km/h (0 Bft) N-NW 330 0 min 6,1 C 6,8 C 0,0 km/h (0 Bft)
28.10.2021 04:45 7,1 C 95 % 1020,1 hPa 0,0 mm 0,0 km/h (0 Bft) N-NW 330 0 min 6,4 C 7,1 C 0,0 km/h (0 Bft)
28.10.2021 04:30 7,2 C 95 % 1020,2 hPa 0,0 mm 0,0 km/h (0 Bft) N-NW 330 0 min 6,5 C 7,2 C 0,0 km/h (0 Bft)
28.10.2021 04:15 7,2 C 95 % 1020,3 hPa 0,0 mm 0,0 km/h (0 Bft) N-NW 330 0 min 6,5 C 7,2 C 0,0 km/h (0 Bft)
28.10.2021 04:00 7,4 C 95 % 1020,2 hPa 0,0 mm 0,0 km/h (0 Bft) N-NW 330 0 min 6,7 C 7,4 C 0,0 km/h (0 Bft)
28.10.2021 03:45 7,4 C 95 % 1020,3 hPa 0,0 mm 0,0 km/h (0 Bft) N-NW 330 0 min 6,7 C 7,4 C 0,0 km/h (0 Bft)
28.10.2021 03:30 7,6 C 95 % 1020,4 hPa 0,0 mm 0,0 km/h (0 Bft) N-NW 330 0 min 6,9 C 7,6 C 0,0 km/h (0 Bft)
28.10.2021 03:15 7,7 C 95 % 1020,5 hPa 0,0 mm 0,0 km/h (0 Bft) N-NW 329 0 min 7,0 C 7,7 C 0,0 km/h (0 Bft)
28.10.2021 03:00 7,6 C 95 % 1020,5 hPa 0,0 mm 0,1 km/h (0 Bft) N-NW 329 0 min 6,9 C 7,6 C 3,2 km/h (1 Bft)
28.10.2021 02:45 7,7 C 95 % 1020,5 hPa 0,0 mm 0,0 km/h (0 Bft) N-NW 328 0 min 7,0 C 7,7 C 0,0 km/h (0 Bft)
28.10.2021 02:30 7,6 C 95 % 1020,6 hPa 0,0 mm 0,0 km/h (0 Bft) N-NW 328 0 min 6,9 C 7,6 C 0,0 km/h (0 Bft)
28.10.2021 02:15 7,7 C 95 % 1020,6 hPa 0,0 mm 0,0 km/h (0 Bft) N-NW 327 0 min 7,0 C 7,7 C 0,0 km/h (0 Bft)
28.10.2021 02:00 7,7 C 94 % 1020,6 hPa 0,0 mm 0,0 km/h (0 Bft) NW 325 0 min 6,8 C 7,7 C 0,0 km/h (0 Bft)
28.10.2021 01:45 7,7 C 94 % 1020,7 hPa 0,0 mm 0,0 km/h (0 Bft) NW 324 0 min 6,8 C 7,7 C 0,0 km/h (0 Bft)
28.10.2021 01:30 7,8 C 94 % 1020,6 hPa 0,0 mm 0,0 km/h (0 Bft) NW 322 0 min 6,9 C 7,8 C 3,2 km/h (1 Bft)
28.10.2021 01:15 7,9 C 94 % 1020,7 hPa 0,0 mm 0,0 km/h (0 Bft) NW 321 0 min 7,0 C 7,9 C 0,0 km/h (0 Bft)
28.10.2021 01:00 7,9 C 93 % 1020,8 hPa 0,0 mm 0,0 km/h (0 Bft) NW 319 0 min 6,8 C 7,9 C 0,0 km/h (0 Bft)
28.10.2021 00:45 8,2 C 93 % 1020,8 hPa 0,0 mm 0,0 km/h (0 Bft) NW 319 0 min 7,1 C 8,2 C 0,0 km/h (0 Bft)
28.10.2021 00:30 8,3 C 93 % 1021,0 hPa 0,0 mm 0,0 km/h (0 Bft) NW 319 0 min 7,2 C 8,3 C 0,0 km/h (0 Bft)
28.10.2021 00:15 8,3 C 93 % 1021,0 hPa 0,0 mm 0,0 km/h (0 Bft) NW 319 0 min 7,2 C 8,3 C 0,0 km/h (0 Bft)
28.10.2021 00:00 8,3 C 92 % 1021,1 hPa 0,0 mm 0,0 km/h (0 Bft) NW 319 0 min 7,1 C 8,3 C 0,0 km/h (0 Bft)
27.10.2021 23:45 8,6 C 92 % 1021,2 hPa 0,0 mm 0,0 km/h (0 Bft) N 0 0 min 7,4 C 8,6 C 0,0 km/h (0 Bft)
27.10.2021 23:30 8,6 C 91 % 1021,3 hPa 0,0 mm 0,0 km/h (0 Bft) N 0 0 min 7,2 C 8,6 C 0,0 km/h (0 Bft)
27.10.2021 23:15 8,8 C 91 % 1021,2 hPa 0,0 mm 0,0 km/h (0 Bft) N 0 0 min 7,4 C 8,8 C 0,0 km/h (0 Bft)
27.10.2021 23:00 9,1 C 91 % 1021,2 hPa 0,0 mm 0,0 km/h (0 Bft) NW 319 0 min 7,7 C 9,1 C 0,0 km/h (0 Bft)
27.10.2021 22:45 9,3 C 90 % 1021,2 hPa 0,0 mm 0,0 km/h (0 Bft) NW 318 0 min 7,7 C 9,3 C 1,6 km/h (1 Bft)
27.10.2021 22:30 9,3 C 90 % 1021,2 hPa 0,0 mm 0,0 km/h (0 Bft) NW 311 0 min 7,7 C 9,3 C 1,6 km/h (1 Bft)
27.10.2021 22:15 9,6 C 88 % 1021,2 hPa 0,0 mm 0,0 km/h (0 Bft) W-NW 301 0 min 7,7 C 9,6 C 0,0 km/h (0 Bft)
27.10.2021 22:00 10,1 C 86 % 1021,3 hPa 0,0 mm 0,0 km/h (0 Bft) W-NW 298 0 min 7,9 C 10,1 C 1,6 km/h (1 Bft)
27.10.2021 21:45 10,8 C 85 % 1021,4 hPa 0,0 mm 0,0 km/h (0 Bft) W-NW 302 0 min 8,4 C 10,8 C 3,2 km/h (1 Bft)
27.10.2021 21:30 11,3 C 84 % 1021,4 hPa 0,0 mm 1,4 km/h (1 Bft) W-NW 290 0 min 8,7 C 11,3 C 8,0 km/h (2 Bft)
27.10.2021 21:15 11,5 C 83 % 1021,4 hPa 0,0 mm 1,8 km/h (1 Bft) W-NW 282 0 min 8,7 C 11,5 C 8,0 km/h (2 Bft)
27.10.2021 21:00 11,7 C 83 % 1021,4 hPa 0,0 mm 0,8 km/h (0 Bft) W-NW 287 0 min 8,9 C 11,7 C 8,0 km/h (2 Bft)
27.10.2021 20:45 11,7 C 83 % 1021,5 hPa 0,0 mm 0,0 km/h (0 Bft) W-NW 298 0 min 8,9 C 11,7 C 0,0 km/h (0 Bft)
27.10.2021 20:30 11,9 C 82 % 1021,5 hPa 0,0 mm 1,3 km/h (1 Bft) W-NW 284 0 min 8,9 C 11,9 C 9,7 km/h (2 Bft)
27.10.2021 20:15 12,1 C 82 % 1021,4 hPa 0,0 mm 0,6 km/h (0 Bft) W 279 0 min 9,1 C 12,1 C 8,0 km/h (2 Bft)
27.10.2021 20:00 12,1 C 82 % 1021,4 hPa 0,0 mm 1,4 km/h (1 Bft) W 281 0 min 9,1 C 12,1 C 9,7 km/h (2 Bft)
27.10.2021 19:45 12,2 C 82 % 1021,3 hPa 0,0 mm 3,6 km/h (1 Bft) W-NW 289 0 min 9,2 C 12,2 C 11,3 km/h (2 Bft)
27.10.2021 19:30 12,4 C 81 % 1021,3 hPa 0,0 mm 3,6 km/h (1 Bft) W-NW 298 0 min 9,2 C 12,4 C 11,3 km/h (2 Bft)
27.10.2021 19:15 12,7 C 80 % 1021,2 hPa 0,0 mm 3,3 km/h (1 Bft) W-NW 294 0 min 9,3 C 12,7 C 11,3 km/h (2 Bft)
27.10.2021 19:00 13,0 C 79 % 1021,2 hPa 0,0 mm 2,4 km/h (1 Bft) W-NW 285 0 min 9,4 C 13,0 C 9,7 km/h (2 Bft)
27.10.2021 18:45 13,2 C 78 % 1021,1 hPa 0,0 mm 3,8 km/h (1 Bft) W-NW 301 0 min 9,4 C 13,2 C 12,9 km/h (3 Bft)
27.10.2021 18:30 13,4 C 78 % 1021,1 hPa 0,0 mm 5,3 km/h (1 Bft) W 279 0 min 9,6 C 13,4 C 12,9 km/h (3 Bft)
27.10.2021 18:15 13,6 C 78 % 1021,2 hPa 0,0 mm 1,2 km/h (1 Bft) W-NW 284 0 min 9,8 C 13,6 C 8,0 km/h (2 Bft)
27.10.2021 18:00 13,8 C 77 % 1021,2 hPa 0,0 mm 1,5 km/h (1 Bft) W-NW 303 0 min 9,8 C 13,8 C 14,5 km/h (3 Bft)
_ Min-Zeit 08:30 16:00 17:00 - 20:45 - - - 08:30 08:30 20:45
Minimum _ 5,4 C 60 % 1014,7 hPa - 0,0 km/h (0 Bft) - - - 4,7 C 5,4 C 0,0 km/h (0 Bft)
_ Max-Zeit 16:00 07:30 20:30 07:00 14:15 - - 09:30 18:00 16:00 13:45
Maximum _ 16,2 C 96 % 1021,5 hPa 0,3 mm 8,0 km/h
W-NW (2 Bft)
- - 15 min 9,8 C 16,1 C 22,5 km/h
W (4 Bft)
Durchschnitt _ 10,5 C 84 % 1019,6 hPa #0,3 mm 1,7 km/h (1 Bft) W-NW - #7:15 h 7,8 C 10,5 C 7,1 km/h (2 Bft)